Time;durP1;ratioP1;P1;durP2;ratioP2;P2;SDS_P1;SDS_P2;PMS_P1;PMS_P2;Temp;Humidity;BMP_temperature;BMP_pressure;BME280_temperature;BME280_humidity;BME280_pressure;Samples;Min_cycle;Max_cycle;Signal;HPM_P1;HPM_P2
2021/08/01 00:01:25;;;;;;;2.80;1.83;;;15.20;99.90;;;;;;5099108;28;20482;-70
2021/08/01 00:03:52;;;;;;;1.70;1.60;;;15.20;99.90;;;;;;5099067;28;20000;-70
2021/08/01 00:06:18;;;;;;;2.40;1.70;;;15.20;99.90;;;;;;5099049;28;20060;-70
2021/08/01 00:08:45;;;;;;;4.55;1.90;;;15.20;99.90;;;;;;5098635;28;20023;-70
2021/08/01 00:11:11;;;;;;;1.80;1.60;;;15.30;99.90;;;;;;5080767;28;20032;-70
2021/08/01 00:13:38;;;;;;;6.30;1.80;;;15.50;99.90;;;;;;5098869;28;20012;-70
2021/08/01 00:16:04;;;;;;;1.50;1.40;;;15.60;99.90;;;;;;5098974;28;20024;-70
2021/08/01 00:18:30;;;;;;;2.47;2.13;;;15.50;99.90;;;;;;5098586;28;20099;-70
2021/08/01 00:20:56;;;;;;;2.25;1.80;;;15.40;99.90;;;;;;5098941;28;20067;-71
2021/08/01 00:23:22;;;;;;;2.05;1.88;;;15.80;99.90;;;;;;5098260;28;20095;-70
2021/08/01 00:25:48;;;;;;;1.40;1.30;;;15.50;99.90;;;;;;5098722;28;20537;-70
2021/08/01 00:28:14;;;;;;;2.67;1.70;;;15.40;99.90;;;;;;5098257;28;20511;-70
2021/08/01 00:30:40;;;;;;;3.53;1.67;;;15.40;99.90;;;;;;5080314;28;20143;-70
2021/08/01 00:33:06;;;;;;;2.28;1.67;;;15.50;99.90;;;;;;5107540;28;20077;-70
2021/08/01 00:35:31;;;;;;;3.20;2.50;;;15.50;99.90;;;;;;5098406;28;20024;-70
2021/08/01 00:37:57;;;;;;;5.00;1.90;;;15.40;99.90;;;;;;5098112;28;20375;-70
2021/08/01 00:40:23;;;;;;;1.60;1.50;;;15.40;99.90;;;;;;5097316;28;20024;-70
2021/08/01 00:42:50;;;;;;;1.65;1.30;;;15.50;99.90;;;;;;5079938;28;20021;-70
2021/08/01 00:45:16;;;;;;;1.92;1.80;;;15.50;99.90;;;;;;5098247;28;20486;-70
2021/08/01 00:47:43;;;;;;;1.65;1.55;;;15.60;99.90;;;;;;5098291;28;20028;-70
2021/08/01 00:50:10;;;;;;;3.05;1.55;;;15.50;99.90;;;;;;5098128;28;20461;-70
2021/08/01 00:52:37;;;;;;;2.92;1.50;;;15.40;99.90;;;;;;5098172;28;20030;-70
2021/08/01 00:55:07;;;;;;;1.67;1.58;;;15.60;99.90;;;;;;5097865;28;20496;-70
2021/08/01 00:57:33;;;;;;;2.53;1.58;;;15.40;99.90;;;;;;5098108;28;20024;-70
2021/08/01 01:00:00;;;;;;;2.47;2.28;;;15.50;99.90;;;;;;5098002;28;20080;-70
2021/08/01 01:02:37;;;;;;;2.13;1.83;;;15.50;99.90;;;;;;5097877;28;20031;-70
2021/08/01 01:05:23;;;;;;;2.92;2.03;;;15.40;99.90;;;;;;5098001;28;20494;-70
2021/08/01 01:07:58;;;;;;;2.87;1.80;;;15.50;99.90;;;;;;5097708;28;20024;-70
2021/08/01 01:10:48;;;;;;;3.30;2.25;;;15.60;99.90;;;;;;5097665;28;20117;-70
2021/08/01 01:13:20;;;;;;;2.00;1.83;;;15.50;99.90;;;;;;5097060;28;20047;-70
2021/08/01 01:15:52;;;;;;;2.45;1.60;;;15.40;99.90;;;;;;5097800;28;20024;-70
2021/08/01 01:18:23;;;;;;;7.75;1.70;;;15.40;99.90;;;;;;5097542;28;20020;-70
2021/08/01 01:21:07;;;;;;;2.67;1.60;;;15.10;99.90;;;;;;5097673;28;20024;-70
2021/08/01 01:24:02;;;;;;;5.38;2.67;;;15.10;99.90;;;;;;5113040;28;20031;-70
2021/08/01 01:26:46;;;;;;;1.58;1.40;;;15.10;99.90;;;;;;5097259;28;20044;-71
2021/08/01 01:29:15;;;;;;;3.30;1.77;;;15.20;99.90;;;;;;5097313;28;20060;-70
2021/08/01 01:31:47;;;;;;;2.25;1.77;;;14.90;99.90;;;;;;5100199;28;20814;-71
2021/08/01 01:34:20;;;;;;;1.95;1.50;;;14.80;99.90;;;;;;5101924;28;20028;-70
2021/08/01 01:36:47;;;;;;;2.08;1.80;;;14.80;99.90;;;;;;5097311;28;20024;-70
2021/08/01 01:39:14;;;;;;;6.55;2.10;;;14.90;99.90;;;;;;5096830;28;20506;-70
2021/08/01 01:41:44;;;;;;;1.73;1.58;;;15.00;99.90;;;;;;5097231;28;20023;-70
2021/08/01 01:44:10;;;;;;;2.47;1.80;;;14.80;99.90;;;;;;5078931;28;20107;-70
2021/08/01 01:46:37;;;;;;;1.83;1.38;;;14.90;99.90;;;;;;5097315;28;20475;-70
2021/08/01 01:49:08;;;;;;;1.90;1.70;;;14.70;99.90;;;;;;5097213;28;20020;-70
2021/08/01 01:51:36;;;;;;;3.58;1.80;;;14.50;99.90;;;;;;5097070;28;20388;-70
2021/08/01 01:54:03;;;;;;;4.55;1.90;;;14.90;99.90;;;;;;5096587;28;20031;-70
2021/08/01 01:56:32;;;;;;;2.25;1.27;;;14.50;99.90;;;;;;5096978;28;20024;-70
2021/08/01 01:59:01;;;;;;;5.28;1.80;;;14.70;99.90;;;;;;5096991;28;20066;-70
2021/08/01 02:01:27;;;;;;;1.98;1.73;;;14.50;99.90;;;;;;5096927;28;20020;-70
2021/08/01 02:03:52;;;;;;;5.88;2.08;;;14.40;99.90;;;;;;5096875;28;20074;-70
2021/08/01 02:06:20;;;;;;;4.40;2.05;;;14.70;99.90;;;;;;5096860;28;20018;-70
2021/08/01 02:09:12;;;;;;;4.82;2.25;;;14.10;99.90;;;;;;5096428;28;20023;-70
2021/08/01 02:11:54;;;;;;;4.63;1.83;;;14.30;99.90;;;;;;5096523;28;20398;-70
2021/08/01 02:14:27;;;;;;;3.65;2.15;;;13.90;99.90;;;;;;5078569;28;20500;-70
2021/08/01 02:16:59;;;;;;;2.63;1.58;;;14.30;99.90;;;;;;5083475;28;20024;-70
2021/08/01 02:19:28;;;;;;;2.25;1.70;;;14.30;99.90;;;;;;5096627;28;20091;-70
2021/08/01 02:21:55;;;;;;;2.08;1.80;;;13.90;99.90;;;;;;5096791;28;20496;-70
2021/08/01 02:24:22;;;;;;;4.85;1.90;;;13.90;99.90;;;;;;5096355;28;20083;-70
2021/08/01 02:26:48;;;;;;;3.55;1.80;;;13.90;99.90;;;;;;5078249;28;20043;-70
2021/08/01 02:29:17;;;;;;;3.50;1.80;;;14.10;99.90;;;;;;5096599;28;20028;-70
2021/08/01 02:31:43;;;;;;;1.98;1.88;;;13.30;99.90;;;;;;5099499;28;20028;-70
2021/08/01 02:34:09;;;;;;;3.08;2.03;;;13.50;99.90;;;;;;5101639;28;20032;-70
2021/08/01 02:36:36;;;;;;;4.10;1.73;;;14.20;99.90;;;;;;5096943;28;20059;-70
2021/08/01 02:39:02;;;;;;;8.05;1.90;;;13.70;99.90;;;;;;5096334;28;20063;-70
2021/08/01 02:41:37;;;;;;;1.70;1.60;;;13.70;99.90;;;;;;5096572;28;20012;-70
2021/08/01 02:44:17;;;;;;;3.53;1.77;;;13.60;99.90;;;;;;5096585;28;20434;-70
2021/08/01 02:46:45;;;;;;;3.45;2.10;;;13.60;99.90;;;;;;5096584;28;20035;-70
2021/08/01 02:49:17;;;;;;;2.30;1.80;;;13.60;99.90;;;;;;5096364;28;20077;-70
2021/08/01 02:51:47;;;;;;;9.82;1.92;;;13.50;99.90;;;;;;5096483;28;20029;-70
2021/08/01 02:54:14;;;;;;;3.33;1.90;;;13.60;99.90;;;;;;5096254;28;20020;-70
2021/08/01 02:56:40;;;;;;;2.63;2.35;;;13.50;99.90;;;;;;5096201;28;20064;-70
2021/08/01 02:59:07;;;;;;;1.90;1.80;;;12.70;99.90;;;;;;5096720;28;20031;-70
2021/08/01 03:01:36;;;;;;;1.98;1.85;;;12.90;99.90;;;;;;5096395;28;20020;-70
2021/08/01 03:04:03;;;;;;;4.07;1.83;;;13.00;99.90;;;;;;5098667;28;20023;-70
2021/08/01 03:06:32;;;;;;;1.75;1.60;;;12.70;99.90;;;;;;5100118;28;20020;-70
2021/08/01 03:09:03;;;;;;;2.63;1.77;;;13.30;99.90;;;;;;5099946;28;20017;-70
2021/08/01 03:11:34;;;;;;;3.53;2.00;;;12.80;99.90;;;;;;5099802;28;20024;-70
2021/08/01 03:14:00;;;;;;;3.60;1.95;;;13.00;99.90;;;;;;5100136;28;20478;-70
2021/08/01 03:16:27;;;;;;;3.53;1.83;;;13.00;99.90;;;;;;5099720;28;20050;-70
2021/08/01 03:18:52;;;;;;;2.22;1.92;;;12.80;99.90;;;;;;5099956;28;20053;-70
2021/08/01 03:21:18;;;;;;;3.63;2.42;;;13.10;99.90;;;;;;5099590;28;20493;-70
2021/08/01 03:23:44;;;;;;;2.28;1.75;;;13.10;99.90;;;;;;5099753;28;20017;-70
2021/08/01 03:26:10;;;;;;;3.25;2.40;;;12.60;99.90;;;;;;5099651;28;20389;-70
2021/08/01 03:28:36;;;;;;;2.67;2.10;;;12.60;99.90;;;;;;5099746;28;20051;-70
2021/08/01 03:31:02;;;;;;;2.88;1.90;;;12.70;99.90;;;;;;5099563;28;20023;-70
2021/08/01 03:33:28;;;;;;;3.97;1.80;;;12.80;99.90;;;;;;5108560;28;20099;-70
2021/08/01 03:35:54;;;;;;;5.32;2.45;;;12.60;99.90;;;;;;5099485;28;20031;-70
2021/08/01 03:38:19;;;;;;;3.65;2.08;;;12.50;99.90;;;;;;5081034;28;20020;-70
2021/08/01 03:40:45;;;;;;;2.78;2.03;;;12.30;99.90;;;;;;5099386;28;20099;-70
2021/08/01 03:43:11;;;;;;;2.95;2.00;;;12.70;99.90;;;;;;5099370;28;20572;-70
2021/08/01 03:45:37;;;;;;;3.45;2.22;;;11.90;99.90;;;;;;5099280;28;20099;-70
2021/08/01 03:48:03;;;;;;;2.65;1.92;;;12.30;99.90;;;;;;5099825;28;20012;-70
2021/08/01 03:50:29;;;;;;;2.67;1.90;;;12.70;99.90;;;;;;5081086;28;20076;-70
2021/08/01 03:52:55;;;;;;;4.45;1.90;;;12.40;99.90;;;;;;5099089;28;20550;-70
2021/08/01 03:55:20;;;;;;;3.38;2.10;;;12.00;99.90;;;;;;5099044;28;20032;-70
2021/08/01 03:57:46;;;;;;;1.90;1.80;;;13.00;99.90;;;;;;5099223;28;20024;-70
2021/08/01 04:00:13;;;;;;;4.18;2.65;;;11.60;99.90;;;;;;5099106;28;20020;-70
2021/08/01 04:02:38;;;;;;;2.92;2.40;;;12.20;99.90;;;;;;5099141;28;20016;-70
2021/08/01 04:05:08;;;;;;;2.35;2.15;;;12.30;99.90;;;;;;5099224;28;20452;-70
2021/08/01 04:07:34;;;;;;;4.60;2.35;;;11.70;99.90;;;;;;5099080;28;20052;-70
2021/08/01 04:10:00;;;;;;;2.78;1.92;;;12.70;99.90;;;;;;5098565;28;20027;-70
2021/08/01 04:12:26;;;;;;;3.00;2.20;;;12.40;99.90;;;;;;5098915;28;20495;-70
2021/08/01 04:14:52;;;;;;;5.75;2.20;;;12.20;99.90;;;;;;5098722;28;20020;-70
2021/08/01 04:17:18;;;;;;;5.75;2.15;;;12.30;99.90;;;;;;5080578;28;20031;-70
2021/08/01 04:19:47;;;;;;;2.25;2.15;;;12.40;99.90;;;;;;5080509;28;20035;-70
2021/08/01 04:22:17;;;;;;;2.30;2.08;;;11.20;99.90;;;;;;5098689;28;20027;-70
2021/08/01 04:24:43;;;;;;;2.33;2.10;;;11.90;99.90;;;;;;5098302;28;20479;-69
2021/08/01 04:27:09;;;;;;;4.28;2.25;;;11.90;99.90;;;;;;5098474;28;20047;-70
2021/08/01 04:29:35;;;;;;;3.05;2.10;;;11.70;99.90;;;;;;5080454;28;20105;-70
2021/08/01 04:32:00;;;;;;;4.35;2.22;;;11.20;99.90;;;;;;5104053;28;20491;-70
2021/08/01 04:34:26;;;;;;;3.05;2.42;;;11.50;99.90;;;;;;5101167;28;20207;-70
2021/08/01 04:36:53;;;;;;;2.72;2.47;;;12.10;99.90;;;;;;5098563;28;20422;-70
2021/08/01 04:39:19;;;;;;;2.50;2.30;;;11.40;99.90;;;;;;5097892;28;20047;-70
2021/08/01 04:41:45;;;;;;;4.75;2.15;;;11.70;99.90;;;;;;5098304;28;20025;-70
2021/08/01 04:44:11;;;;;;;4.20;2.70;;;12.50;99.90;;;;;;5098177;28;20051;-70
2021/08/01 04:46:38;;;;;;;2.65;2.45;;;12.00;99.90;;;;;;5080082;28;20102;-70
2021/08/01 04:49:04;;;;;;;2.42;2.30;;;11.60;99.90;;;;;;5098208;28;20028;-70
2021/08/01 04:51:30;;;;;;;3.10;2.80;;;12.10;99.90;;;;;;5098196;28;20020;-70
2021/08/01 04:53:55;;;;;;;2.33;2.03;;;11.80;99.90;;;;;;5079481;28;20495;-70
2021/08/01 04:56:21;;;;;;;2.42;2.20;;;12.20;99.90;;;;;;5098091;28;20030;-70
2021/08/01 04:58:47;;;;;;;2.13;2.03;;;12.20;99.90;;;;;;5097858;28;20032;-70
2021/08/01 05:01:14;;;;;;;3.08;2.33;;;11.70;99.90;;;;;;5098076;28;20014;-70
2021/08/01 05:03:40;;;;;;;2.58;2.03;;;11.70;99.90;;;;;;5097877;28;20444;-70
2021/08/01 05:06:06;;;;;;;2.17;2.08;;;11.60;99.90;;;;;;5098032;28;20044;-70
2021/08/01 05:08:32;;;;;;;3.92;2.10;;;11.90;99.90;;;;;;5097649;28;20058;-69
2021/08/01 05:10:57;;;;;;;4.05;2.03;;;11.70;99.90;;;;;;5097897;28;20387;-70
2021/08/01 05:13:23;;;;;;;2.40;2.00;;;11.80;99.90;;;;;;5097504;28;20020;-69
2021/08/01 05:15:49;;;;;;;1.90;1.80;;;11.60;99.90;;;;;;5097758;28;20393;-70
2021/08/01 05:18:15;;;;;;;4.05;2.00;;;11.70;99.90;;;;;;5097473;28;20051;-70
2021/08/01 05:20:44;;;;;;;2.20;2.00;;;12.10;99.90;;;;;;5097738;28;20016;-70
2021/08/01 05:23:10;;;;;;;1.90;1.80;;;11.70;99.90;;;;;;5097148;28;20085;-70
2021/08/01 05:25:37;;;;;;;2.78;2.20;;;11.70;99.90;;;;;;5097435;28;20040;-70
2021/08/01 05:28:03;;;;;;;2.03;1.75;;;11.80;99.90;;;;;;5097070;28;20052;-70
2021/08/01 05:30:29;;;;;;;1.98;1.63;;;12.30;99.90;;;;;;5097265;28;20403;-70
2021/08/01 05:32:55;;;;;;;3.75;2.15;;;12.50;99.90;;;;;;5105763;28;20077;-70
2021/08/01 05:35:21;;;;;;;2.10;2.00;;;12.10;99.90;;;;;;5079186;28;20036;-70
2021/08/01 05:37:47;;;;;;;2.08;1.88;;;12.50;99.90;;;;;;5096909;28;20024;-70
2021/08/01 05:40:13;;;;;;;1.92;1.77;;;11.80;99.90;;;;;;5097315;28;20024;-70
2021/08/01 05:42:39;;;;;;;1.80;1.70;;;12.70;99.90;;;;;;5097149;28;20028;-70
2021/08/01 05:45:06;;;;;;;1.98;1.88;;;12.90;99.90;;;;;;5097416;28;20027;-70
2021/08/01 05:47:35;;;;;;;2.15;1.60;;;12.50;99.90;;;;;;5097332;28;20111;-70
2021/08/01 05:50:01;;;;;;;3.45;2.17;;;13.30;99.90;;;;;;5097318;28;20083;-70
2021/08/01 05:52:27;;;;;;;5.57;2.20;;;13.30;99.90;;;;;;5097078;28;20521;-70
2021/08/01 05:54:53;;;;;;;2.30;2.20;;;12.60;99.90;;;;;;5096713;28;20548;-70
2021/08/01 05:57:19;;;;;;;4.90;2.28;;;13.80;99.90;;;;;;5096834;28;20035;-70
2021/08/01 05:59:45;;;;;;;1.98;1.88;;;13.30;99.90;;;;;;5096938;28;20024;-70
2021/08/01 06:02:12;;;;;;;2.33;1.95;;;13.80;99.90;;;;;;5096726;28;20031;-70
2021/08/01 06:04:38;;;;;;;3.33;1.80;;;14.10;99.90;;;;;;5096962;28;20022;-71
2021/08/01 06:07:05;;;;;;;4.10;2.40;;;14.00;99.90;;;;;;5096931;28;20024;-70
2021/08/01 06:09:31;;;;;;;2.53;1.65;;;14.80;99.90;;;;;;5096608;28;20451;-70
2021/08/01 06:11:57;;;;;;;2.85;2.08;;;14.50;99.90;;;;;;5096636;28;20032;-70
2021/08/01 06:14:23;;;;;;;3.22;2.15;;;15.00;99.90;;;;;;5096875;28;20024;-71
2021/08/01 06:16:49;;;;;;;5.63;2.42;;;15.90;99.90;;;;;;5096633;28;20102;-70
2021/08/01 06:19:14;;;;;;;2.88;1.90;;;16.00;99.90;;;;;;5096909;28;20434;-71
2021/08/01 06:21:40;;;;;;;2.28;1.83;;;16.40;99.90;;;;;;5096600;28;20027;-71
2021/08/01 06:24:06;;;;;;;2.22;1.80;;;16.90;99.90;;;;;;5096586;28;20107;-70
2021/08/01 06:26:32;;;;;;;5.88;2.50;;;17.30;99.90;;;;;;5096458;28;20020;-71
2021/08/01 06:28:58;;;;;;;3.17;2.40;;;17.80;99.90;;;;;;5096762;28;20436;-70
2021/08/01 06:31:24;;;;;;;1.92;1.70;;;18.70;99.90;;;;;;5096825;28;20032;-71
2021/08/01 06:33:50;;;;;;;3.03;1.80;;;18.80;99.90;;;;;;5104646;28;20016;-71
2021/08/01 06:36:16;;;;;;;2.88;1.95;;;19.10;99.90;;;;;;5096502;28;20039;-70
2021/08/01 06:38:43;;;;;;;4.18;1.50;;;19.60;99.90;;;;;;5079680;28;20028;-70
2021/08/01 06:41:10;;;;;;;6.22;1.98;;;19.90;99.90;;;;;;5100441;28;20030;-70
2021/08/01 06:43:36;;;;;;;4.50;1.27;;;20.10;99.90;;;;;;5100546;28;20103;-70
2021/08/01 06:46:03;;;;;;;2.92;1.50;;;20.40;99.90;;;;;;5100609;28;20046;-71
2021/08/01 06:48:29;;;;;;;1.70;1.40;;;20.10;99.90;;;;;;5100636;28;20024;-71
2021/08/01 06:50:55;;;;;;;2.08;1.83;;;19.90;99.90;;;;;;5100546;28;20441;-71
2021/08/01 06:53:20;;;;;;;4.50;1.67;;;19.80;99.90;;;;;;5093279;28;20040;-61
2021/08/01 06:55:46;;;;;;;3.05;1.30;;;19.70;99.90;;;;;;5099969;28;20518;-60
2021/08/01 06:58:17;;;;;;;1.25;1.10;;;19.60;99.90;;;;;;5100151;28;20063;-61
2021/08/01 07:00:45;;;;;;;2.72;1.67;;;19.80;99.90;;;;;;5086758;28;20117;-59
2021/08/01 07:03:13;;;;;;;1.70;1.55;;;19.70;99.90;;;;;;5099955;28;20076;-60
2021/08/01 07:05:39;;;;;;;1.52;1.42;;;19.80;99.90;;;;;;5100247;28;20103;-60
2021/08/01 07:08:05;;;;;;;4.30;1.42;;;19.50;99.90;;;;;;5099492;28;20062;-60
2021/08/01 07:10:31;;;;;;;2.20;1.40;;;19.20;99.90;;;;;;5100291;28;20020;-61
2021/08/01 07:13:05;;;;;;;3.08;1.45;;;19.10;99.90;;;;;;5100007;28;20028;-60
2021/08/01 07:15:32;;;;;;;2.22;1.52;;;18.80;99.90;;;;;;5099721;28;20023;-61
2021/08/01 07:18:00;;;;;;;6.22;2.25;;;19.10;99.90;;;;;;5099850;28;20067;-60
2021/08/01 07:20:28;;;;;;;3.80;1.80;;;19.10;99.90;;;;;;5100008;28;20032;-61
2021/08/01 07:22:54;;;;;;;1.90;1.73;;;19.20;99.90;;;;;;5099200;28;20023;-61
2021/08/01 07:25:23;;;;;;;3.28;1.77;;;19.70;99.90;;;;;;5099851;28;20053;-61
2021/08/01 07:27:49;;;;;;;2.17;1.90;;;20.00;99.90;;;;;;5097553;28;20127;-60
2021/08/01 07:30:15;;;;;;;5.57;2.10;;;20.50;99.90;;;;;;5098947;28;20035;-61
2021/08/01 07:32:41;;;;;;;3.72;2.65;;;20.60;99.90;;;;;;5108410;28;20027;-61
2021/08/01 07:35:08;;;;;;;3.63;1.70;;;21.10;99.90;;;;;;5099751;28;20441;-61
2021/08/01 07:37:34;;;;;;;3.55;1.60;;;21.40;99.90;;;;;;5098917;28;20016;-61
2021/08/01 07:40:00;;;;;;;4.35;1.77;;;21.30;99.90;;;;;;5099471;28;20073;-61
2021/08/01 07:42:26;;;;;;;2.30;1.80;;;21.20;99.90;;;;;;5099240;28;20514;-60
2021/08/01 07:44:54;;;;;;;3.47;1.75;;;21.10;99.90;;;;;;5099055;28;20043;-61
2021/08/01 07:47:23;;;;;;;3.45;1.60;;;21.20;99.90;;;;;;5099217;28;20036;-61
2021/08/01 07:49:50;;;;;;;5.63;1.83;;;21.20;99.90;;;;;;5099013;28;20083;-61
2021/08/01 07:52:20;;;;;;;2.08;1.75;;;21.30;99.90;;;;;;5098689;28;20028;-60
2021/08/01 07:54:47;;;;;;;2.17;1.50;;;21.20;99.90;;;;;;5099045;28;20040;-61
2021/08/01 07:57:22;;;;;;;1.83;1.48;;;21.10;99.90;;;;;;5099116;28;20082;-61
2021/08/01 07:59:48;;;;;;;1.65;1.17;;;21.20;99.90;;;;;;5098881;28;20083;-61
2021/08/01 08:02:14;;;;;;;2.40;1.75;;;21.40;99.90;;;;;;5099003;28;20573;-61
2021/08/01 08:04:40;;;;;;;1.50;1.40;;;21.20;99.90;;;;;;5099083;28;20016;-61
2021/08/01 08:07:06;;;;;;;3.17;1.58;;;21.20;99.90;;;;;;5098485;28;20028;-61
2021/08/01 08:09:32;;;;;;;5.05;1.55;;;21.40;99.90;;;;;;5098648;28;20419;-61
2021/08/01 08:11:58;;;;;;;2.63;1.40;;;21.60;99.90;;;;;;5096669;28;20114;-61
2021/08/01 08:14:23;;;;;;;2.25;1.38;;;21.70;99.90;;;;;;5098004;28;20031;-60
2021/08/01 08:16:49;;;;;;;1.55;1.35;;;21.60;99.90;;;;;;5098641;28;20142;-60
2021/08/01 08:19:15;;;;;;;3.33;1.52;;;21.60;99.90;;;;;;5098854;28;20012;-61
2021/08/01 08:21:41;;;;;;;2.92;1.20;;;21.70;99.90;;;;;;5098291;28;20020;-61
2021/08/01 08:24:07;;;;;;;1.85;1.20;;;21.80;99.90;;;;;;5098367;28;20020;-60
2021/08/01 08:26:33;;;;;;;3.60;1.65;;;21.80;99.90;;;;;;5098527;28;20533;-61
2021/08/01 08:28:59;;;;;;;2.95;1.25;;;22.10;99.90;;;;;;5097972;28;20034;-61
2021/08/01 08:31:25;;;;;;;2.58;1.15;;;22.30;99.90;;;;;;5098951;28;20017;-61
2021/08/01 08:33:51;;;;;;;4.30;1.25;;;;;;;;;;5104848;28;20024;-61
2021/08/01 08:36:17;;;;;;;3.20;1.25;;;23.50;99.90;;;;;;5097811;28;20094;-61
2021/08/01 08:38:43;;;;;;;1.90;1.10;;;23.80;99.90;;;;;;5098076;28;20103;-61
2021/08/01 08:41:13;;;;;;;4.65;1.50;;;;;;;;;;5097977;28;20059;-61
2021/08/01 08:43:40;;;;;;;1.98;1.23;;;22.00;99.90;;;;;;5098178;28;20024;-61
2021/08/01 08:46:09;;;;;;;2.15;1.20;;;21.50;99.90;;;;;;5098284;28;20024;-61
2021/08/01 08:48:36;;;;;;;1.55;1.10;;;21.20;99.90;;;;;;5098250;28;20023;-60
2021/08/01 08:51:04;;;;;;;2.58;1.35;;;21.20;99.90;;;;;;5098443;28;20027;-61
2021/08/01 08:53:32;;;;;;;1.65;1.30;;;22.10;99.90;;;;;;5097697;28;20541;-62
2021/08/01 08:55:58;;;;;;;2.13;1.38;;;23.80;99.90;;;;;;5098127;28;20015;-62
2021/08/01 08:58:29;;;;;;;2.92;0.93;;;25.70;99.90;;;;;;5097904;28;20032;-63
2021/08/01 09:00:55;;;;;;;1.27;0.98;;;26.00;99.90;;;;;;5097351;28;20021;-63
2021/08/01 09:03:21;;;;;;;2.33;1.00;;;25.80;99.90;;;;;;5097772;28;20540;-62
2021/08/01 09:05:51;;;;;;;3.97;1.13;;;24.60;99.90;;;;;;5097941;28;20066;-63
2021/08/01 09:08:17;;;;;;;1.70;1.00;;;24.50;99.90;;;;;;5097533;28;20039;-62
2021/08/01 09:10:43;;;;;;;2.45;1.35;;;24.00;99.90;;;;;;5097938;28;20020;-62
2021/08/01 09:13:09;;;;;;;2.30;1.20;;;22.70;99.90;;;;;;5097606;28;20055;-62
2021/08/01 09:15:35;;;;;;;1.77;1.35;;;22.60;99.90;;;;;;5097838;28;20063;-62
2021/08/01 09:18:09;;;;;;;3.10;1.10;;;23.20;99.90;;;;;;5097722;28;20021;-62
2021/08/01 09:20:36;;;;;;;3.45;1.15;;;25.60;99.90;;;;;;5097915;28;20021;-62
2021/08/01 09:23:05;;;;;;;4.47;1.67;;;26.20;99.90;;;;;;5097496;28;20024;-60
2021/08/01 09:25:55;;;;;;;3.55;1.00;;;26.60;99.90;;;;;;5097763;28;20028;-63
2021/08/01 09:28:25;;;;;;;1.85;1.02;;;26.30;97.80;;;;;;5084330;28;20523;-63
2021/08/01 09:31:05;;;;;;;2.00;0.98;;;26.00;99.10;;;;;;5097445;28;20077;-63
2021/08/01 09:33:38;;;;;;;2.55;1.23;;;25.40;99.00;;;;;;5105736;28;20026;-63
2021/08/01 09:36:09;;;;;;;1.15;0.95;;;24.30;99.20;;;;;;5097426;28;20492;-63
2021/08/01 09:38:45;;;;;;;3.47;1.23;;;22.80;99.90;;;;;;5097287;28;20080;-63
2021/08/01 09:41:11;;;;;;;;;;;22.80;99.90;;;;;;5097535;28;20020;-63
2021/08/01 09:43:48;;;;;;;2.03;1.13;;;22.50;99.90;;;;;;5097302;28;19904;-63
2021/08/01 09:46:15;;;;;;;5.10;1.30;;;22.40;99.90;;;;;;5097386;28;20065;-63
2021/08/01 09:48:41;;;;;;;1.42;1.33;;;22.30;99.90;;;;;;5097015;28;20036;-63
2021/08/01 09:51:09;;;;;;;5.00;1.25;;;22.90;99.90;;;;;;5097310;28;20028;-63
2021/08/01 09:53:36;;;;;;;2.10;0.85;;;25.00;99.70;;;;;;5096815;28;20027;-63
2021/08/01 09:56:20;;;;;;;1.30;1.05;;;25.50;99.70;;;;;;5097472;28;20033;-63
2021/08/01 09:58:47;;;;;;;1.30;1.20;;;25.60;99.40;;;;;;5096900;28;20028;-63
2021/08/01 10:01:13;;;;;;;1.13;0.90;;;25.60;98.60;;;;;;5097105;28;20426;-63
2021/08/01 10:03:41;;;;;;;1.60;1.10;;;25.20;97.90;;;;;;5096838;28;20434;-63
2021/08/01 10:06:12;;;;;;;3.33;1.23;;;24.90;98.20;;;;;;5097023;28;20032;-63
2021/08/01 10:08:43;;;;;;;3.28;1.38;;;24.40;98.20;;;;;;5096446;28;20020;-63
2021/08/01 10:11:12;;;;;;;1.13;0.90;;;24.10;99.10;;;;;;5096884;28;20398;-63
2021/08/01 10:13:39;;;;;;;2.40;1.20;;;23.90;99.60;;;;;;5096731;28;20035;-63
2021/08/01 10:16:07;;;;;;;1.85;1.10;;;24.30;99.90;;;;;;5096896;28;20061;-63
2021/08/01 10:18:33;;;;;;;3.28;1.10;;;24.60;99.70;;;;;;5096723;28;20028;-63
2021/08/01 10:20:59;;;;;;;2.70;1.33;;;24.50;99.00;;;;;;5091716;28;20085;-63
2021/08/01 10:23:26;;;;;;;2.08;1.02;;;24.30;99.90;;;;;;5093188;28;20376;-63
2021/08/01 10:25:54;;;;;;;2.25;1.10;;;24.40;99.90;;;;;;5096471;28;20025;-64
2021/08/01 10:28:23;;;;;;;0.95;0.90;;;24.40;99.90;;;;;;5098983;28;20044;-63
2021/08/01 10:30:52;;;;;;;1.98;1.02;;;24.50;99.90;;;;;;5096481;28;20043;-63
2021/08/01 10:33:23;;;;;;;0.93;0.93;;;24.20;99.80;;;;;;5105466;28;20058;-63
2021/08/01 10:35:56;;;;;;;0.82;0.82;;;23.90;99.80;;;;;;5096078;28;20034;-63
2021/08/01 10:38:24;;;;;;;2.10;1.00;;;23.60;99.90;;;;;;5096326;28;20521;-63
2021/08/01 10:40:57;;;;;;;3.28;0.90;;;23.50;99.90;;;;;;5097536;28;20024;-63
2021/08/01 10:43:29;;;;;;;2.83;1.10;;;23.50;99.90;;;;;;5096096;28;20020;-64
2021/08/01 10:45:56;;;;;;;2.85;1.20;;;23.40;99.90;;;;;;5096337;28;20517;-63
2021/08/01 10:48:25;;;;;;;1.67;1.10;;;23.80;99.90;;;;;;5096537;28;20024;-63
2021/08/01 10:50:52;;;;;;;5.25;1.40;;;23.90;99.90;;;;;;5095814;28;20028;-63
2021/08/01 10:53:24;;;;;;;3.22;1.00;;;23.80;99.90;;;;;;5094236;28;20012;-63
2021/08/01 10:56:17;;;;;;;1.48;1.00;;;23.70;99.90;;;;;;5091657;28;20032;-63
2021/08/01 10:58:43;;;;;;;2.05;0.85;;;23.60;99.90;;;;;;5091064;28;20036;-63
2021/08/01 11:01:09;;;;;;;2.03;1.10;;;23.50;99.90;;;;;;5096403;28;20035;-64
2021/08/01 11:03:39;;;;;;;2.30;1.15;;;23.60;99.90;;;;;;5096451;28;20584;-63
2021/08/01 11:06:25;;;;;;;2.08;1.67;;;23.50;99.90;;;;;;5101387;28;20103;-63
2021/08/01 11:09:12;;;;;;;1.80;1.00;;;23.30;99.90;;;;;;5082549;28;20020;-64
2021/08/01 11:11:38;;;;;;;4.00;1.10;;;23.00;99.90;;;;;;5096271;28;20036;-63
2021/08/01 11:14:04;;;;;;;2.00;1.08;;;23.00;99.90;;;;;;5096095;28;20019;-63
2021/08/01 11:16:33;;;;;;;2.92;1.00;;;22.90;99.90;;;;;;5096121;28;20043;-63
2021/08/01 11:19:02;;;;;;;1.10;1.00;;;22.90;99.90;;;;;;5096360;28;20024;-63
2021/08/01 11:21:38;;;;;;;4.40;0.98;;;22.60;99.90;;;;;;5095508;28;20035;-63
2021/08/01 11:24:07;;;;;;;1.42;1.30;;;22.30;99.90;;;;;;5096425;28;20024;-63
2021/08/01 11:26:35;;;;;;;2.80;1.65;;;22.40;99.90;;;;;;5099747;28;20026;-63
2021/08/01 11:29:15;;;;;;;1.67;0.73;;;22.20;99.90;;;;;;5099222;28;20017;-63
2021/08/01 11:32:08;;;;;;;1.92;1.30;;;22.10;99.90;;;;;;5099123;28;20020;-63
2021/08/01 11:34:34;;;;;;;1.83;1.08;;;22.10;99.90;;;;;;5099295;28;20443;-63
2021/08/01 11:37:20;;;;;;;3.50;1.13;;;22.00;99.90;;;;;;5099720;28;20098;-63
2021/08/01 11:39:54;;;;;;;3.75;1.67;;;21.90;99.90;;;;;;5098963;28;20097;-63
2021/08/01 11:42:24;;;;;;;2.65;1.58;;;21.90;99.90;;;;;;5099008;28;20027;-63
2021/08/01 11:45:02;;;;;;;2.00;1.20;;;21.80;99.90;;;;;;5098578;28;20072;-63
2021/08/01 11:47:28;;;;;;;2.88;1.38;;;21.60;99.90;;;;;;5097713;28;20020;-63
2021/08/01 11:49:55;;;;;;;3.30;1.33;;;21.70;99.90;;;;;;5099586;28;20115;-64
2021/08/01 11:52:24;;;;;;;3.35;1.50;;;21.80;99.90;;;;;;5098810;28;20028;-63
2021/08/01 11:54:54;;;;;;;2.25;1.35;;;22.00;99.90;;;;;;5099502;28;20036;-70
2021/08/01 11:57:26;;;;;;;3.38;1.35;;;22.20;99.90;;;;;;5080841;28;20020;-71
2021/08/01 11:59:52;;;;;;;2.22;1.40;;;22.40;99.90;;;;;;5099355;28;20024;-71
2021/08/01 12:02:19;;;;;;;2.70;1.20;;;22.60;99.90;;;;;;5099288;28;20017;-70
2021/08/01 12:04:56;;;;;;;5.10;1.73;;;22.90;99.90;;;;;;5099164;28;20020;-71
2021/08/01 12:07:22;;;;;;;2.38;1.02;;;23.20;99.90;;;;;;5099097;28;20024;-71
2021/08/01 12:09:49;;;;;;;2.03;1.48;;;23.80;99.90;;;;;;5099021;28;20030;-71
2021/08/01 12:12:26;;;;;;;1.40;1.25;;;24.20;99.90;;;;;;5098942;28;20092;-70
2021/08/01 12:14:54;;;;;;;1.55;0.90;;;24.70;99.90;;;;;;5098738;28;21432;-71
2021/08/01 12:17:20;;;;;;;3.47;1.13;;;24.90;99.90;;;;;;5080700;28;20084;-71
2021/08/01 12:19:47;;;;;;;3.40;1.38;;;25.00;99.90;;;;;;5098692;28;20031;-71
2021/08/01 12:22:16;;;;;;;1.02;0.85;;;24.80;99.90;;;;;;5098505;28;20017;-70
2021/08/01 12:24:47;;;;;;;0.88;0.75;;;24.60;99.90;;;;;;5098629;28;20020;-71
2021/08/01 12:27:20;;;;;;;1.00;0.82;;;24.30;99.90;;;;;;5098684;28;20089;-71
2021/08/01 12:29:48;;;;;;;1.67;0.90;;;24.20;99.90;;;;;;5098569;28;20020;-71
2021/08/01 12:32:36;;;;;;;3.88;1.00;;;24.20;99.90;;;;;;5106246;28;20015;-71
2021/08/01 12:35:03;;;;;;;1.55;1.40;;;24.30;99.90;;;;;;5087202;28;20089;-71
2021/08/01 12:37:31;;;;;;;1.08;0.70;;;24.30;99.90;;;;;;5098247;28;20027;-71
2021/08/01 12:39:57;;;;;;;3.30;0.95;;;23.90;99.90;;;;;;5098386;28;20491;-71
2021/08/01 12:42:23;;;;;;;1.77;0.80;;;23.90;99.90;;;;;;5098378;28;20046;-71
2021/08/01 12:44:58;;;;;;;2.05;1.20;;;23.80;99.90;;;;;;5098427;28;20024;-71
2021/08/01 12:47:26;;;;;;;1.30;0.90;;;24.20;99.90;;;;;;5098264;28;20024;-70
2021/08/01 12:49:54;;;;;;;0.88;0.73;;;24.60;99.90;;;;;;5098275;28;20387;-71
2021/08/01 12:52:22;;;;;;;3.28;0.90;;;24.90;99.90;;;;;;5097922;28;20391;-71
2021/08/01 12:54:49;;;;;;;1.10;0.80;;;24.90;99.90;;;;;;5079882;28;20028;-70